Accueil
METAR-TAF:

METAR-TAF

Aéroports :

Thomson-McDuffie County Airport

Thomson, Géorgie, États-Unis

latitude: 33-31-46N, longitude: 082-30-59W, altitude: 152 m

Observation

Le bulletin a été fait il y a 19 minutes, à 22:35 UTC
Vent 6 kt de nord
Température 11°C
Humidité 47%
Pression 1018 hPa
Visibilité: 16.1 km
Ciel couvert à une hauteur de 8000 ft

METAR: KHQU 282235Z AUTO 01006KT 10SM OVC080 11/00 A3006 RMK AO2 T01111002

Heure: 17:54 (22:54 UTC)


TAF: absent

Observations et prévisions météorologiques de plus de 4000 aéroports (messages METAR et TAF).

Les stations disponibles sont représentées par des disques jaunes et rouges sur la carte.

Passer la souris dessus pour voir le nom de la station.

Cliquer dessus pour voir les observations et prévisions météorologiques.

Pour changer de carte: cliquez sur les boutons verts avec une croix noire pour zoomer, sur le bouton vert avec un tiret pour effectuer un zoom arrière, ou sur les flèches vertes pour les cartes adjacentes.


METAR-TAF: